Impacts METAR Board
IDs:

KBOS - Boston/Logan Intl, MA, US

Updated at: 0700 UTC 24 Sep 2018
Potential Impact None Slight Moderate High
Time 23/19Z 23/20Z 23/21Z 23/22Z 23/23Z 24/00Z 24/01Z 24/02Z 24/03Z 24/04Z 24/05Z 24/06Z 24/07Z
Temp64 64 63 62 62 62 60 60 60 59 57 57 55
Dewpt45 44 46 47 48 48 50 50 50 51 50 50 49
Altim30.23 30.22 30.23 30.23 30.25 30.27 30.28 30.29 30.31 30.32 30.33 30.35 30.36
VIS10 10 10 10 10 10 10 10 10 10 10 10 10
CIG160 180 180 180 180 150 220 220 250 250 250 250 250
CoverOVCOVCOVCOVCOVCOVCBKNOVCBKNBKNBKNBKNBKN
FltCatVFRVFRVFRVFRVFRVFRVFRVFRVFRVFRVFRVFRVFR
WX--------------------------
WDir27028027021024026024031003100340350
WSpd7 4 6 7 6 5 4 8 5 3 0 4 5
WGst-- -- -- -- -- -- -- -- -- -- -- -- --
Raw hourly METARs
KBOS 231854Z 27007KT 10SM BKN160 OVC220 18/07 A3023 RMK AO2 SLP236 BINOVC NE T01780072
KBOS 231954Z 28004KT 10SM BKN180 OVC220 18/07 A3022 RMK AO2 SLP234 BINOVC NE T01780067
KBOS 232054Z 27006KT 10SM BKN180 OVC220 17/08 A3023 RMK AO2 SLP235 BINOVC NE T01720078 55003
KBOS 232154Z 21007KT 10SM BKN180 OVC220 17/08 A3023 RMK AO2 SLP237 BINOVC N-NE T01670083
KBOS 232254Z 24006KT 10SM BKN180 OVC220 17/09 A3025 RMK AO2 SLP243 BINOVC N-NE T01670089
KBOS 232354Z 26005KT 10SM BKN150 BKN220 OVC250 17/09 A3027 RMK AO2 SLP249 T01670089 10183 20167 53014
KBOS 240054Z 24004KT 10SM FEW150 BKN220 BKN250 16/10 A3028 RMK AO2 SLP254 T01560100
KBOS 240154Z 31008KT 10SM SCT150 BKN220 OVC250 16/10 A3029 RMK AO2 SLP257 T01560100
KBOS 240254Z VRB05KT 10SM SCT150 BKN250 16/10 A3031 RMK AO2 SLP262 T01560100 51013
KBOS 240354Z 31003KT 10SM SCT150 BKN250 15/11 A3032 RMK AO2 SLP267 T01500106
KBOS 240454Z 00000KT 10SM FEW150 SCT220 BKN250 14/10 A3033 RMK AO2 SLP271 T01390100 401830117
KBOS 240554Z 34004KT 10SM BKN250 14/10 A3035 RMK AO2 SLP277 T01390100 10167 20133 53015
KBOS 240654Z 35005KT 10SM FEW150 BKN250 13/09 A3036 RMK AO2 SLP280 T01280094



Page loaded:  07:56 UTC  |   12:56 AM Pacific  |   01:56 AM Mountain  |   02:56 AM Central  |   03:56 AM Eastern

 

ADVISORIES

FORECASTS

FORECASTS

OBSERVATIONS

USER TOOLS

ABOUT US